sensor_id;sensor_type;location;lat;lon;timestamp;P1;durP1;ratioP1;P2;durP2;ratioP2
53833;SDS011;39735;51.432;5.482;2023-04-01T00:00:30;3.95;;;1.30;;
53833;SDS011;39735;51.432;5.482;2023-04-01T00:02:55;9.98;;;2.67;;
53833;SDS011;39735;51.432;5.482;2023-04-01T00:05:21;5.75;;;1.85;;
53833;SDS011;39735;51.432;5.482;2023-04-01T00:07:46;17.95;;;1.90;;
53833;SDS011;39735;51.432;5.482;2023-04-01T00:10:12;4.63;;;1.30;;
53833;SDS011;39735;51.432;5.482;2023-04-01T00:12:38;10.90;;;0.88;;
53833;SDS011;39735;51.432;5.482;2023-04-01T00:15:05;8.63;;;1.25;;
53833;SDS011;39735;51.432;5.482;2023-04-01T00:17:31;1.63;;;0.85;;
53833;SDS011;39735;51.432;5.482;2023-04-01T00:19:57;5.03;;;1.17;;
53833;SDS011;39735;51.432;5.482;2023-04-01T00:22:23;5.82;;;1.48;;
53833;SDS011;39735;51.432;5.482;2023-04-01T00:24:49;5.03;;;1.35;;
53833;SDS011;39735;51.432;5.482;2023-04-01T00:27:14;14.00;;;2.63;;
53833;SDS011;39735;51.432;5.482;2023-04-01T00:29:44;24.08;;;2.17;;
53833;SDS011;39735;51.432;5.482;2023-04-01T00:32:10;7.68;;;1.63;;
53833;SDS011;39735;51.432;5.482;2023-04-01T00:34:35;13.73;;;1.50;;
53833;SDS011;39735;51.432;5.482;2023-04-01T00:37:01;4.05;;;0.65;;
53833;SDS011;39735;51.432;5.482;2023-04-01T00:39:30;1.85;;;0.88;;
53833;SDS011;39735;51.432;5.482;2023-04-01T00:41:56;8.20;;;1.13;;
53833;SDS011;39735;51.432;5.482;2023-04-01T00:44:32;12.63;;;1.08;;
53833;SDS011;39735;51.432;5.482;2023-04-01T00:46:59;4.45;;;1.65;;
53833;SDS011;39735;51.432;5.482;2023-04-01T00:49:29;6.07;;;0.98;;
53833;SDS011;39735;51.432;5.482;2023-04-01T00:51:57;4.05;;;0.88;;
53833;SDS011;39735;51.432;5.482;2023-04-01T00:54:25;0.75;;;0.65;;
53833;SDS011;39735;51.432;5.482;2023-04-01T00:56:56;3.83;;;1.10;;
53833;SDS011;39735;51.432;5.482;2023-04-01T00:59:45;7.70;;;1.02;;
53833;SDS011;39735;51.432;5.482;2023-04-01T01:02:12;3.38;;;1.27;;
53833;SDS011;39735;51.432;5.482;2023-04-01T01:04:38;6.32;;;0.98;;
53833;SDS011;39735;51.432;5.482;2023-04-01T01:20:33;5.50;;;0.60;;
53833;SDS011;39735;51.432;5.482;2023-04-01T01:33:46;7.07;;;0.75;;
53833;SDS011;39735;51.432;5.482;2023-04-01T01:36:36;2.53;;;0.45;;
53833;SDS011;39735;51.432;5.482;2023-04-01T01:39:04;3.50;;;0.65;;
53833;SDS011;39735;51.432;5.482;2023-04-01T01:41:31;5.28;;;2.72;;
53833;SDS011;39735;51.432;5.482;2023-04-01T01:43:57;0.20;;;0.20;;
53833;SDS011;39735;51.432;5.482;2023-04-01T01:46:24;1.95;;;0.40;;
53833;SDS011;39735;51.432;5.482;2023-04-01T01:48:51;0.20;;;0.20;;
53833;SDS011;39735;51.432;5.482;2023-04-01T01:51:18;0.20;;;0.20;;
53833;SDS011;39735;51.432;5.482;2023-04-01T01:53:44;1.20;;;1.10;;
53833;SDS011;39735;51.432;5.482;2023-04-01T01:56:10;1.52;;;0.60;;
53833;SDS011;39735;51.432;5.482;2023-04-01T02:01:34;0.32;;;0.30;;
53833;SDS011;39735;51.432;5.482;2023-04-01T02:04:00;0.80;;;0.80;;
53833;SDS011;39735;51.432;5.482;2023-04-01T02:06:28;0.70;;;0.70;;
53833;SDS011;39735;51.432;5.482;2023-04-01T02:08:56;0.60;;;0.60;;
53833;SDS011;39735;51.432;5.482;2023-04-01T02:12:07;1.27;;;1.10;;
53833;SDS011;39735;51.432;5.482;2023-04-01T02:14:17;2.60;;;2.38;;
53833;SDS011;39735;51.432;5.482;2023-04-01T02:16:49;2.65;;;1.65;;
53833;SDS011;39735;51.432;5.482;2023-04-01T02:19:18;12.15;;;1.80;;
53833;SDS011;39735;51.432;5.482;2023-04-01T02:21:49;2.00;;;1.65;;
53833;SDS011;39735;51.432;5.482;2023-04-01T02:24:16;16.60;;;5.63;;
53833;SDS011;39735;51.432;5.482;2023-04-01T02:26:42;6.47;;;2.65;;
53833;SDS011;39735;51.432;5.482;2023-04-01T02:29:09;2.67;;;2.47;;
53833;SDS011;39735;51.432;5.482;2023-04-01T02:31:35;3.30;;;2.10;;
53833;SDS011;39735;51.432;5.482;2023-04-01T02:34:01;2.78;;;2.58;;
53833;SDS011;39735;51.432;5.482;2023-04-01T02:36:27;2.13;;;2.00;;
53833;SDS011;39735;51.432;5.482;2023-04-01T02:38:53;5.13;;;3.22;;
53833;SDS011;39735;51.432;5.482;2023-04-01T02:41:20;3.60;;;3.30;;
53833;SDS011;39735;51.432;5.482;2023-04-01T02:43:46;5.00;;;3.40;;
53833;SDS011;39735;51.432;5.482;2023-04-01T02:46:11;7.47;;;3.05;;
53833;SDS011;39735;51.432;5.482;2023-04-01T02:48:37;6.30;;;3.70;;
53833;SDS011;39735;51.432;5.482;2023-04-01T02:51:02;5.38;;;2.70;;
53833;SDS011;39735;51.432;5.482;2023-04-01T02:53:28;5.25;;;3.08;;
53833;SDS011;39735;51.432;5.482;2023-04-01T02:55:54;9.70;;;4.07;;
53833;SDS011;39735;51.432;5.482;2023-04-01T02:58:20;6.93;;;3.90;;
53833;SDS011;39735;51.432;5.482;2023-04-01T03:00:46;9.60;;;3.35;;
53833;SDS011;39735;51.432;5.482;2023-04-01T03:03:11;8.25;;;4.38;;
53833;SDS011;39735;51.432;5.482;2023-04-01T03:05:38;5.28;;;2.53;;
53833;SDS011;39735;51.432;5.482;2023-04-01T03:08:04;8.27;;;3.55;;
53833;SDS011;39735;51.432;5.482;2023-04-01T03:10:30;4.25;;;3.03;;
53833;SDS011;39735;51.432;5.482;2023-04-01T03:12:55;3.60;;;2.88;;
53833;SDS011;39735;51.432;5.482;2023-04-01T03:15:21;3.35;;;3.03;;
53833;SDS011;39735;51.432;5.482;2023-04-01T03:17:46;6.03;;;3.25;;
53833;SDS011;39735;51.432;5.482;2023-04-01T03:20:12;2.75;;;2.75;;
53833;SDS011;39735;51.432;5.482;2023-04-01T03:22:37;3.38;;;2.70;;
53833;SDS011;39735;51.432;5.482;2023-04-01T03:25:03;7.22;;;3.08;;
53833;SDS011;39735;51.432;5.482;2023-04-01T03:27:29;3.30;;;3.05;;
53833;SDS011;39735;51.432;5.482;2023-04-01T03:29:55;5.88;;;2.67;;
53833;SDS011;39735;51.432;5.482;2023-04-01T03:32:20;5.82;;;3.22;;
53833;SDS011;39735;51.432;5.482;2023-04-01T03:34:46;3.10;;;2.83;;
53833;SDS011;39735;51.432;5.482;2023-04-01T03:37:11;7.78;;;3.38;;
53833;SDS011;39735;51.432;5.482;2023-04-01T03:39:36;7.70;;;2.80;;
53833;SDS011;39735;51.432;5.482;2023-04-01T03:42:02;16.92;;;2.40;;
53833;SDS011;39735;51.432;5.482;2023-04-01T03:44:31;4.05;;;3.75;;
53833;SDS011;39735;51.432;5.482;2023-04-01T03:46:57;3.20;;;3.03;;
53833;SDS011;39735;51.432;5.482;2023-04-01T03:49:23;3.92;;;2.30;;
53833;SDS011;39735;51.432;5.482;2023-04-01T03:51:48;6.25;;;2.58;;
53833;SDS011;39735;51.432;5.482;2023-04-01T03:54:13;2.38;;;2.28;;
53833;SDS011;39735;51.432;5.482;2023-04-01T03:56:39;2.83;;;2.70;;
53833;SDS011;39735;51.432;5.482;2023-04-01T03:59:06;3.28;;;3.08;;
53833;SDS011;39735;51.432;5.482;2023-04-01T04:01:32;3.55;;;2.42;;
53833;SDS011;39735;51.432;5.482;2023-04-01T04:03:58;2.53;;;1.88;;
53833;SDS011;39735;51.432;5.482;2023-04-01T04:06:24;2.47;;;2.38;;
53833;SDS011;39735;51.432;5.482;2023-04-01T04:08:50;3.13;;;2.35;;
53833;SDS011;39735;51.432;5.482;2023-04-01T04:11:16;5.30;;;2.35;;
53833;SDS011;39735;51.432;5.482;2023-04-01T04:13:41;4.28;;;2.95;;
53833;SDS011;39735;51.432;5.482;2023-04-01T04:16:07;2.75;;;2.55;;
53833;SDS011;39735;51.432;5.482;2023-04-01T04:18:34;3.63;;;3.42;;
53833;SDS011;39735;51.432;5.482;2023-04-01T04:21:00;7.75;;;4.53;;
53833;SDS011;39735;51.432;5.482;2023-04-01T04:23:25;4.22;;;3.90;;
53833;SDS011;39735;51.432;5.482;2023-04-01T04:25:59;5.30;;;4.85;;
53833;SDS011;39735;51.432;5.482;2023-04-01T04:28:29;5.05;;;4.65;;
53833;SDS011;39735;51.432;5.482;2023-04-01T04:30:55;4.78;;;4.38;;
53833;SDS011;39735;51.432;5.482;2023-04-01T04:33:21;9.52;;;6.10;;
53833;SDS011;39735;51.432;5.482;2023-04-01T04:35:47;4.75;;;4.45;;
53833;SDS011;39735;51.432;5.482;2023-04-01T04:38:13;5.15;;;4.88;;
53833;SDS011;39735;51.432;5.482;2023-04-01T04:40:39;4.65;;;4.35;;
53833;SDS011;39735;51.432;5.482;2023-04-01T04:43:05;18.27;;;5.45;;
53833;SDS011;39735;51.432;5.482;2023-04-01T04:45:30;5.85;;;4.78;;
53833;SDS011;39735;51.432;5.482;2023-04-01T04:47:56;4.70;;;4.22;;
53833;SDS011;39735;51.432;5.482;2023-04-01T04:50:22;4.25;;;3.97;;
53833;SDS011;39735;51.432;5.482;2023-04-01T04:52:47;5.50;;;5.10;;
53833;SDS011;39735;51.432;5.482;2023-04-01T04:55:13;8.30;;;4.90;;
53833;SDS011;39735;51.432;5.482;2023-04-01T04:57:40;5.63;;;4.32;;
53833;SDS011;39735;51.432;5.482;2023-04-01T05:00:05;5.05;;;4.65;;
53833;SDS011;39735;51.432;5.482;2023-04-01T05:02:32;9.52;;;6.47;;
53833;SDS011;39735;51.432;5.482;2023-04-01T05:04:58;4.13;;;3.83;;
53833;SDS011;39735;51.432;5.482;2023-04-01T05:07:23;4.28;;;3.95;;
53833;SDS011;39735;51.432;5.482;2023-04-01T05:09:48;6.40;;;3.53;;
53833;SDS011;39735;51.432;5.482;2023-04-01T05:12:14;4.00;;;3.85;;
53833;SDS011;39735;51.432;5.482;2023-04-01T05:14:40;3.88;;;3.28;;
53833;SDS011;39735;51.432;5.482;2023-04-01T05:17:08;10.88;;;3.38;;
53833;SDS011;39735;51.432;5.482;2023-04-01T05:19:34;6.75;;;3.50;;
53833;SDS011;39735;51.432;5.482;2023-04-01T05:22:00;2.63;;;2.53;;
53833;SDS011;39735;51.432;5.482;2023-04-01T05:24:25;5.68;;;2.63;;
53833;SDS011;39735;51.432;5.482;2023-04-01T05:26:51;2.85;;;2.75;;
53833;SDS011;39735;51.432;5.482;2023-04-01T05:29:16;3.63;;;2.45;;
53833;SDS011;39735;51.432;5.482;2023-04-01T05:31:41;2.20;;;2.20;;
53833;SDS011;39735;51.432;5.482;2023-04-01T05:34:07;3.20;;;1.95;;
53833;SDS011;39735;51.432;5.482;2023-04-01T05:36:32;2.47;;;2.38;;
53833;SDS011;39735;51.432;5.482;2023-04-01T05:38:58;2.60;;;2.50;;
53833;SDS011;39735;51.432;5.482;2023-04-01T05:41:23;2.33;;;2.13;;
53833;SDS011;39735;51.432;5.482;2023-04-01T05:43:49;3.78;;;1.65;;
53833;SDS011;39735;51.432;5.482;2023-04-01T05:46:14;2.05;;;1.98;;
53833;SDS011;39735;51.432;5.482;2023-04-01T05:48:40;6.30;;;2.40;;
53833;SDS011;39735;51.432;5.482;2023-04-01T05:51:05;1.85;;;1.77;;
53833;SDS011;39735;51.432;5.482;2023-04-01T05:53:31;8.60;;;1.67;;
53833;SDS011;39735;51.432;5.482;2023-04-01T05:55:56;2.40;;;2.30;;
53833;SDS011;39735;51.432;5.482;2023-04-01T05:58:22;3.75;;;2.08;;
53833;SDS011;39735;51.432;5.482;2023-04-01T06:00:47;2.08;;;1.98;;
53833;SDS011;39735;51.432;5.482;2023-04-01T06:03:12;2.45;;;2.35;;
53833;SDS011;39735;51.432;5.482;2023-04-01T06:05:39;2.45;;;2.25;;
53833;SDS011;39735;51.432;5.482;2023-04-01T06:08:09;2.50;;;2.30;;
53833;SDS011;39735;51.432;5.482;2023-04-01T06:18:45;3.92;;;3.58;;
53833;SDS011;39735;51.432;5.482;2023-04-01T06:35:38;2.58;;;2.45;;
53833;SDS011;39735;51.432;5.482;2023-04-01T06:49:04;3.33;;;2.80;;
53833;SDS011;39735;51.432;5.482;2023-04-01T06:54:09;3.58;;;2.72;;
53833;SDS011;39735;51.432;5.482;2023-04-01T06:56:37;4.22;;;2.92;;
53833;SDS011;39735;51.432;5.482;2023-04-01T06:59:07;2.72;;;2.45;;
53833;SDS011;39735;51.432;5.482;2023-04-01T07:04:15;3.85;;;3.55;;
53833;SDS011;39735;51.432;5.482;2023-04-01T07:06:51;3.40;;;3.30;;
53833;SDS011;39735;51.432;5.482;2023-04-01T07:09:30;4.40;;;4.20;;
53833;SDS011;39735;51.432;5.482;2023-04-01T07:11:59;5.10;;;3.88;;
53833;SDS011;39735;51.432;5.482;2023-04-01T07:14:29;5.30;;;4.90;;
53833;SDS011;39735;51.432;5.482;2023-04-01T07:17:04;5.82;;;5.40;;
53833;SDS011;39735;51.432;5.482;2023-04-01T07:19:53;6.68;;;5.70;;
53833;SDS011;39735;51.432;5.482;2023-04-01T07:25:37;7.28;;;6.82;;
53833;SDS011;39735;51.432;5.482;2023-04-01T07:28:12;9.05;;;7.90;;
53833;SDS011;39735;51.432;5.482;2023-04-01T07:36:31;20.30;;;12.82;;
53833;SDS011;39735;51.432;5.482;2023-04-01T07:44:17;12.40;;;10.35;;
53833;SDS011;39735;51.432;5.482;2023-04-01T07:47:09;16.50;;;12.43;;
53833;SDS011;39735;51.432;5.482;2023-04-01T07:50:15;24.07;;;15.20;;
53833;SDS011;39735;51.432;5.482;2023-04-01T07:55:18;22.67;;;13.93;;
53833;SDS011;39735;51.432;5.482;2023-04-01T08:06:50;20.45;;;14.73;;
53833;SDS011;39735;51.432;5.482;2023-04-01T08:09:40;22.25;;;15.68;;
53833;SDS011;39735;51.432;5.482;2023-04-01T08:23:12;27.02;;;16.52;;
53833;SDS011;39735;51.432;5.482;2023-04-01T08:28:47;27.02;;;15.60;;
53833;SDS011;39735;51.432;5.482;2023-04-01T08:31:22;26.27;;;13.32;;
53833;SDS011;39735;51.432;5.482;2023-04-01T08:33:52;24.23;;;15.07;;
53833;SDS011;39735;51.432;5.482;2023-04-01T08:43:51;37.97;;;15.10;;
53833;SDS011;39735;51.432;5.482;2023-04-01T08:57:41;21.52;;;14.25;;
53833;SDS011;39735;51.432;5.482;2023-04-01T09:03:24;19.42;;;10.57;;
53833;SDS011;39735;51.432;5.482;2023-04-01T09:14:29;18.73;;;11.35;;
53833;SDS011;39735;51.432;5.482;2023-04-01T09:22:57;17.50;;;10.75;;
53833;SDS011;39735;51.432;5.482;2023-04-01T09:44:42;13.80;;;8.75;;
53833;SDS011;39735;51.432;5.482;2023-04-01T09:52:51;5.72;;;5.10;;
53833;SDS011;39735;51.432;5.482;2023-04-01T09:55:30;14.88;;;4.82;;
53833;SDS011;39735;51.432;5.482;2023-04-01T10:06:21;10.25;;;6.25;;
53833;SDS011;39735;51.432;5.482;2023-04-01T10:19:43;11.13;;;7.38;;
53833;SDS011;39735;51.432;5.482;2023-04-01T10:36:47;14.85;;;8.65;;
53833;SDS011;39735;51.432;5.482;2023-04-01T10:47:19;13.60;;;8.60;;
53833;SDS011;39735;51.432;5.482;2023-04-01T11:00:57;16.33;;;8.25;;
53833;SDS011;39735;51.432;5.482;2023-04-01T11:03:35;15.77;;;7.82;;
53833;SDS011;39735;51.432;5.482;2023-04-01T11:17:23;8.43;;;7.00;;
53833;SDS011;39735;51.432;5.482;2023-04-01T11:23:45;8.95;;;7.60;;
53833;SDS011;39735;51.432;5.482;2023-04-01T11:26:12;11.88;;;8.20;;
53833;SDS011;39735;51.432;5.482;2023-04-01T11:39:59;11.23;;;6.20;;
53833;SDS011;39735;51.432;5.482;2023-04-01T11:46:02;5.57;;;4.85;;
53833;SDS011;39735;51.432;5.482;2023-04-01T11:51:10;9.57;;;6.85;;
53833;SDS011;39735;51.432;5.482;2023-04-01T11:54:03;7.10;;;6.40;;
53833;SDS011;39735;51.432;5.482;2023-04-01T11:59:44;5.97;;;5.43;;
53833;SDS011;39735;51.432;5.482;2023-04-01T12:02:25;9.13;;;6.45;;
53833;SDS011;39735;51.432;5.482;2023-04-01T12:13:04;7.28;;;6.05;;
53833;SDS011;39735;51.432;5.482;2023-04-01T12:15:47;7.35;;;5.78;;
53833;SDS011;39735;51.432;5.482;2023-04-01T12:18:26;5.90;;;5.32;;
53833;SDS011;39735;51.432;5.482;2023-04-01T12:26:35;4.90;;;4.40;;
53833;SDS011;39735;51.432;5.482;2023-04-01T12:37:18;5.35;;;3.90;;
53833;SDS011;39735;51.432;5.482;2023-04-01T12:40:17;4.75;;;3.25;;
53833;SDS011;39735;51.432;5.482;2023-04-01T12:52:03;4.28;;;3.97;;
53833;SDS011;39735;51.432;5.482;2023-04-01T13:00:46;7.88;;;4.15;;
53833;SDS011;39735;51.432;5.482;2023-04-01T13:19:44;4.53;;;4.32;;
53833;SDS011;39735;51.432;5.482;2023-04-01T13:22:29;6.70;;;6.07;;
53833;SDS011;39735;51.432;5.482;2023-04-01T13:27:37;8.50;;;4.80;;
53833;SDS011;39735;51.432;5.482;2023-04-01T13:32:56;5.32;;;4.82;;
53833;SDS011;39735;51.432;5.482;2023-04-01T13:35:44;6.15;;;5.32;;
53833;SDS011;39735;51.432;5.482;2023-04-01T13:44:33;7.97;;;5.78;;
53833;SDS011;39735;51.432;5.482;2023-04-01T13:46:47;7.85;;;6.50;;
53833;SDS011;39735;51.432;5.482;2023-04-01T13:52:46;7.68;;;6.07;;
53833;SDS011;39735;51.432;5.482;2023-04-01T13:58:16;10.32;;;6.45;;
53833;SDS011;39735;51.432;5.482;2023-04-01T14:06:26;13.02;;;7.28;;
53833;SDS011;39735;51.432;5.482;2023-04-01T14:09:15;12.10;;;7.28;;
53833;SDS011;39735;51.432;5.482;2023-04-01T14:15:11;9.82;;;5.55;;
53833;SDS011;39735;51.432;5.482;2023-04-01T14:29:15;8.55;;;5.05;;
53833;SDS011;39735;51.432;5.482;2023-04-01T14:31:49;7.47;;;4.38;;
53833;SDS011;39735;51.432;5.482;2023-04-01T14:48:21;3.55;;;3.35;;
53833;SDS011;39735;51.432;5.482;2023-04-01T14:50:51;3.92;;;3.70;;
53833;SDS011;39735;51.432;5.482;2023-04-01T14:55:57;3.60;;;2.80;;
53833;SDS011;39735;51.432;5.482;2023-04-01T15:04:25;2.60;;;2.40;;
53833;SDS011;39735;51.432;5.482;2023-04-01T15:15:23;3.40;;;3.10;;
53833;SDS011;39735;51.432;5.482;2023-04-01T15:29:16;7.80;;;3.72;;
53833;SDS011;39735;51.432;5.482;2023-04-01T15:40:03;13.07;;;3.90;;
53833;SDS011;39735;51.432;5.482;2023-04-01T15:45:29;4.47;;;4.07;;
53833;SDS011;39735;51.432;5.482;2023-04-01T15:59:14;4.95;;;4.60;;
53833;SDS011;39735;51.432;5.482;2023-04-01T16:01:58;11.60;;;5.70;;
53833;SDS011;39735;51.432;5.482;2023-04-01T16:10:09;6.78;;;4.93;;
53833;SDS011;39735;51.432;5.482;2023-04-01T16:20:51;6.55;;;5.07;;
53833;SDS011;39735;51.432;5.482;2023-04-01T16:23:26;3.88;;;3.58;;
53833;SDS011;39735;51.432;5.482;2023-04-01T16:26:20;4.18;;;3.90;;
53833;SDS011;39735;51.432;5.482;2023-04-01T16:28:57;4.35;;;3.90;;
53833;SDS011;39735;51.432;5.482;2023-04-01T16:31:42;6.28;;;4.07;;
53833;SDS011;39735;51.432;5.482;2023-04-01T16:34:16;4.35;;;3.92;;
53833;SDS011;39735;51.432;5.482;2023-04-01T16:36:48;4.07;;;3.78;;
53833;SDS011;39735;51.432;5.482;2023-04-01T16:47:23;5.55;;;4.97;;
53833;SDS011;39735;51.432;5.482;2023-04-01T16:49:56;4.95;;;4.55;;
53833;SDS011;39735;51.432;5.482;2023-04-01T16:55:03;15.55;;;5.50;;
53833;SDS011;39735;51.432;5.482;2023-04-01T16:57:45;5.70;;;4.88;;
53833;SDS011;39735;51.432;5.482;2023-04-01T17:00:16;9.35;;;5.63;;
53833;SDS011;39735;51.432;5.482;2023-04-01T17:03:04;4.43;;;4.03;;
53833;SDS011;39735;51.432;5.482;2023-04-01T17:05:45;5.30;;;4.18;;
53833;SDS011;39735;51.432;5.482;2023-04-01T17:08:27;4.97;;;4.57;;
53833;SDS011;39735;51.432;5.482;2023-04-01T17:11:01;6.15;;;5.55;;
53833;SDS011;39735;51.432;5.482;2023-04-01T17:13:50;7.07;;;4.80;;
53833;SDS011;39735;51.432;5.482;2023-04-01T17:27:48;6.38;;;5.88;;
53833;SDS011;39735;51.432;5.482;2023-04-01T17:36:01;9.35;;;7.22;;
53833;SDS011;39735;51.432;5.482;2023-04-01T17:44:20;11.55;;;7.30;;
53833;SDS011;39735;51.432;5.482;2023-04-01T17:49:48;9.57;;;6.85;;
53833;SDS011;39735;51.432;5.482;2023-04-01T17:55:25;17.05;;;7.72;;
53833;SDS011;39735;51.432;5.482;2023-04-01T17:57:54;21.10;;;8.35;;
53833;SDS011;39735;51.432;5.482;2023-04-01T18:00:26;9.45;;;7.55;;
53833;SDS011;39735;51.432;5.482;2023-04-01T18:05:50;9.70;;;6.60;;
53833;SDS011;39735;51.432;5.482;2023-04-01T18:11:11;12.23;;;7.90;;
53833;SDS011;39735;51.432;5.482;2023-04-01T18:24:42;11.13;;;7.20;;
53833;SDS011;39735;51.432;5.482;2023-04-01T18:27:15;7.10;;;6.03;;
53833;SDS011;39735;51.432;5.482;2023-04-01T18:32:45;7.50;;;6.60;;
53833;SDS011;39735;51.432;5.482;2023-04-01T18:37:47;8.20;;;6.03;;
53833;SDS011;39735;51.432;5.482;2023-04-01T18:42:54;7.63;;;6.47;;
53833;SDS011;39735;51.432;5.482;2023-04-01T18:45:54;9.82;;;6.35;;
53833;SDS011;39735;51.432;5.482;2023-04-01T18:48:34;7.07;;;6.37;;
53833;SDS011;39735;51.432;5.482;2023-04-01T18:51:13;7.75;;;6.28;;
53833;SDS011;39735;51.432;5.482;2023-04-01T18:53:48;6.18;;;5.70;;
53833;SDS011;39735;51.432;5.482;2023-04-01T18:56:24;8.23;;;6.03;;
53833;SDS011;39735;51.432;5.482;2023-04-01T19:04:26;6.82;;;5.88;;
53833;SDS011;39735;51.432;5.482;2023-04-01T19:07:19;6.13;;;5.72;;
53833;SDS011;39735;51.432;5.482;2023-04-01T19:09:48;5.70;;;5.30;;
53833;SDS011;39735;51.432;5.482;2023-04-01T19:12:25;5.95;;;5.45;;
53833;SDS011;39735;51.432;5.482;2023-04-01T19:15:19;9.95;;;5.72;;
53833;SDS011;39735;51.432;5.482;2023-04-01T19:18:07;5.18;;;4.90;;
53833;SDS011;39735;51.432;5.482;2023-04-01T19:20:46;5.28;;;4.97;;
53833;SDS011;39735;51.432;5.482;2023-04-01T19:26:05;6.15;;;5.57;;
53833;SDS011;39735;51.432;5.482;2023-04-01T19:37:27;5.28;;;4.90;;
53833;SDS011;39735;51.432;5.482;2023-04-01T19:47:56;6.65;;;6.15;;
53833;SDS011;39735;51.432;5.482;2023-04-01T19:56:30;7.30;;;6.72;;
53833;SDS011;39735;51.432;5.482;2023-04-01T20:01:35;7.97;;;7.43;;
53833;SDS011;39735;51.432;5.482;2023-04-01T20:04:17;7.07;;;6.50;;
53833;SDS011;39735;51.432;5.482;2023-04-01T20:07:00;9.20;;;8.48;;
53833;SDS011;39735;51.432;5.482;2023-04-01T20:12:45;8.85;;;8.25;;
53833;SDS011;39735;51.432;5.482;2023-04-01T20:15:21;9.13;;;8.27;;
53833;SDS011;39735;51.432;5.482;2023-04-01T20:17:59;9.95;;;9.13;;
53833;SDS011;39735;51.432;5.482;2023-04-01T20:20:27;8.55;;;7.82;;
53833;SDS011;39735;51.432;5.482;2023-04-01T20:25:57;10.52;;;6.82;;
53833;SDS011;39735;51.432;5.482;2023-04-01T20:28:32;8.05;;;7.47;;
53833;SDS011;39735;51.432;5.482;2023-04-01T20:36:46;8.88;;;7.75;;
53833;SDS011;39735;51.432;5.482;2023-04-01T20:45:09;7.72;;;7.05;;
53833;SDS011;39735;51.432;5.482;2023-04-01T20:48:08;7.22;;;6.38;;
53833;SDS011;39735;51.432;5.482;2023-04-01T20:50:41;7.35;;;6.93;;
53833;SDS011;39735;51.432;5.482;2023-04-01T20:53:20;7.40;;;6.90;;
53833;SDS011;39735;51.432;5.482;2023-04-01T21:00:56;6.97;;;6.30;;
53833;SDS011;39735;51.432;5.482;2023-04-01T21:14:24;9.70;;;8.70;;
53833;SDS011;39735;51.432;5.482;2023-04-01T21:17:17;10.60;;;9.60;;
53833;SDS011;39735;51.432;5.482;2023-04-01T21:19:59;7.45;;;6.95;;
53833;SDS011;39735;51.432;5.482;2023-04-01T21:49:09;7.35;;;6.78;;
53833;SDS011;39735;51.432;5.482;2023-04-01T21:54:50;7.07;;;6.57;;
53833;SDS011;39735;51.432;5.482;2023-04-01T21:57:36;6.93;;;6.35;;
53833;SDS011;39735;51.432;5.482;2023-04-01T22:03:17;7.20;;;6.70;;
53833;SDS011;39735;51.432;5.482;2023-04-01T22:05:51;7.45;;;6.70;;
53833;SDS011;39735;51.432;5.482;2023-04-01T22:08:47;6.63;;;5.97;;
53833;SDS011;39735;51.432;5.482;2023-04-01T22:11:36;7.78;;;7.07;;
53833;SDS011;39735;51.432;5.482;2023-04-01T22:17:19;8.82;;;7.93;;
53833;SDS011;39735;51.432;5.482;2023-04-01T22:22:25;8.02;;;7.38;;
53833;SDS011;39735;51.432;5.482;2023-04-01T22:25:14;9.68;;;8.80;;
53833;SDS011;39735;51.432;5.482;2023-04-01T22:30:27;8.25;;;7.55;;
53833;SDS011;39735;51.432;5.482;2023-04-01T22:41:32;10.82;;;7.45;;
53833;SDS011;39735;51.432;5.482;2023-04-01T22:44:37;10.20;;;7.25;;
53833;SDS011;39735;51.432;5.482;2023-04-01T22:47:23;7.40;;;6.70;;
53833;SDS011;39735;51.432;5.482;2023-04-01T22:50:07;10.93;;;9.00;;
53833;SDS011;39735;51.432;5.482;2023-04-01T22:52:40;13.10;;;9.05;;
53833;SDS011;39735;51.432;5.482;2023-04-01T23:03:11;14.75;;;13.23;;
53833;SDS011;39735;51.432;5.482;2023-04-01T23:05:52;25.38;;;12.88;;
53833;SDS011;39735;51.432;5.482;2023-04-01T23:08:30;15.55;;;13.43;;
53833;SDS011;39735;51.432;5.482;2023-04-01T23:11:09;13.10;;;10.50;;
53833;SDS011;39735;51.432;5.482;2023-04-01T23:13:39;10.52;;;9.30;;
53833;SDS011;39735;51.432;5.482;2023-04-01T23:16:08;9.48;;;8.55;;
53833;SDS011;39735;51.432;5.482;2023-04-01T23:27:17;9.45;;;8.25;;
53833;SDS011;39735;51.432;5.482;2023-04-01T23:29:46;15.23;;;8.82;;
53833;SDS011;39735;51.432;5.482;2023-04-01T23:32:18;10.77;;;9.65;;
53833;SDS011;39735;51.432;5.482;2023-04-01T23:34:48;6.40;;;6.00;;
53833;SDS011;39735;51.432;5.482;2023-04-01T23:37:14;12.73;;;6.88;;
53833;SDS011;39735;51.432;5.482;2023-04-01T23:39:43;9.50;;;8.57;;
53833;SDS011;39735;51.432;5.482;2023-04-01T23:44:40;7.10;;;6.43;;
53833;SDS011;39735;51.432;5.482;2023-04-01T23:47:07;12.63;;;8.13;;
53833;SDS011;39735;51.432;5.482;2023-04-01T23:49:38;11.60;;;7.25;;
53833;SDS011;39735;51.432;5.482;2023-04-01T23:52:27;7.45;;;6.60;;
53833;SDS011;39735;51.432;5.482;2023-04-01T23:55:03;7.00;;;6.32;;
53833;SDS011;39735;51.432;5.482;2023-04-01T23:57:37;6.90;;;6.40;;
